createdAt,value
2023-01-19T00:00:43.929Z,83.57
2023-01-19T00:01:46.154Z,83.52
2023-01-19T00:02:48.754Z,83.58
2023-01-19T00:03:51.241Z,83.45
2023-01-19T00:04:53.470Z,83.33
2023-01-19T00:05:55.898Z,83.32
2023-01-19T00:06:58.145Z,83.56
2023-01-19T00:08:14.746Z,83.05
2023-01-19T00:09:17.279Z,83.17
2023-01-19T00:10:19.539Z,83.04
2023-01-19T00:11:21.781Z,83.02
2023-01-19T00:12:24.522Z,82.96
2023-01-19T00:13:26.764Z,83.23
2023-01-19T00:14:28.949Z,82.88
2023-01-19T00:15:31.208Z,82.66
2023-01-19T00:16:33.633Z,82.87
2023-01-19T00:17:35.893Z,82.80
2023-01-19T00:18:38.108Z,83.02
2023-01-19T00:19:40.266Z,82.67
2023-01-19T00:20:44.887Z,82.74
2023-01-19T00:21:47.273Z,82.91
2023-01-19T00:22:50.986Z,83.31
2023-01-19T00:23:53.228Z,83.17
2023-01-19T00:24:55.647Z,83.44
2023-01-19T00:25:58.022Z,83.54
2023-01-19T00:27:01.645Z,83.08
2023-01-19T00:28:04.387Z,82.73
2023-01-19T00:29:07.926Z,82.67
2023-01-19T00:30:10.737Z,82.54
2023-01-19T00:31:13.085Z,82.61
2023-01-19T00:32:15.370Z,82.43
2023-01-19T00:33:17.791Z,82.49
2023-01-19T00:34:20.205Z,82.69
2023-01-19T00:35:22.421Z,82.90
2023-01-19T00:36:24.773Z,83.09
2023-01-19T00:37:27.132Z,83.36
2023-01-19T00:38:29.286Z,83.43
2023-01-19T00:39:31.787Z,83.10
2023-01-19T00:40:33.955Z,83.06
2023-01-19T00:41:55.222Z,82.95
2023-01-19T00:42:57.765Z,82.60
2023-01-19T00:44:00.294Z,82.73
2023-01-19T00:45:02.673Z,82.49
2023-01-19T00:46:04.980Z,82.34
2023-01-19T00:47:07.410Z,82.12
2023-01-19T00:48:09.843Z,82.17
2023-01-19T00:49:12.200Z,82.10
2023-01-19T00:50:19.035Z,81.95
2023-01-19T00:51:21.489Z,82.04
2023-01-19T00:52:23.689Z,82.49
2023-01-19T00:53:26.491Z,82.22
2023-01-19T00:54:28.661Z,82.50
2023-01-19T00:55:33.540Z,82.69
2023-01-19T00:56:36.611Z,82.54
2023-01-19T00:57:40.175Z,82.49
2023-01-19T00:58:42.357Z,82.39
2023-01-19T00:59:44.881Z,82.60
2023-01-19T01:00:47.354Z,82.70
2023-01-19T01:01:49.685Z,82.87
2023-01-19T01:02:53.205Z,82.69
2023-01-19T01:03:55.972Z,82.50
2023-01-19T01:04:58.199Z,82.65
2023-01-19T01:06:00.498Z,82.89
2023-01-19T01:07:03.129Z,83.02
2023-01-19T01:08:05.518Z,83.37
2023-01-19T01:09:11.954Z,83.02
2023-01-19T01:10:20.842Z,83.00
2023-01-19T01:11:23.207Z,83.08
2023-01-19T01:12:28.645Z,82.98
2023-01-19T01:13:31.740Z,82.84
2023-01-19T01:14:34.382Z,82.65
2023-01-19T01:15:36.565Z,82.23
2023-01-19T01:16:40.259Z,82.33
2023-01-19T01:17:47.527Z,82.18
2023-01-19T01:18:49.725Z,82.03
2023-01-19T01:19:52.580Z,82.02
2023-01-19T01:21:04.456Z,81.82
2023-01-19T01:22:07.779Z,82.02
2023-01-19T01:23:10.623Z,82.37
2023-01-19T01:24:12.888Z,82.05
2023-01-19T01:25:17.403Z,81.98
2023-01-19T01:26:19.679Z,82.21
2023-01-19T01:27:21.991Z,82.41
2023-01-19T01:28:24.677Z,82.32
2023-01-19T01:29:26.864Z,82.42
2023-01-19T01:30:29.032Z,82.43
2023-01-19T01:31:31.643Z,82.34
2023-01-19T01:32:33.944Z,82.08
2023-01-19T01:33:40.975Z,81.66
2023-01-19T01:34:44.197Z,81.93
2023-01-19T01:35:47.164Z,81.56
2023-01-19T01:36:49.559Z,81.51
2023-01-19T01:37:51.770Z,81.28
2023-01-19T01:38:54.442Z,81.34
2023-01-19T01:39:56.679Z,81.55
2023-01-19T01:40:58.902Z,81.36
2023-01-19T01:42:01.140Z,81.71
2023-01-19T01:43:03.741Z,81.67
2023-01-19T01:44:50.060Z,81.86
2023-01-19T01:45:57.806Z,81.93
2023-01-19T01:47:00.837Z,81.89
2023-01-19T01:48:09.868Z,81.40
2023-01-19T01:49:16.824Z,81.07
2023-01-19T01:50:25.260Z,81.42
2023-01-19T01:51:42.325Z,81.59
2023-01-19T01:53:07.699Z,81.13
2023-01-19T01:54:13.300Z,81.16
2023-01-19T01:55:17.349Z,81.19
2023-01-19T01:56:24.245Z,81.21
2023-01-19T01:57:28.136Z,81.29
2023-01-19T01:58:33.112Z,81.36
2023-01-19T01:59:40.126Z,81.11
2023-01-19T02:01:01.118Z,81.10
2023-01-19T02:02:28.396Z,80.79
2023-01-19T02:03:33.154Z,80.84
2023-01-19T02:04:35.372Z,80.92
2023-01-19T02:05:37.990Z,81.33
2023-01-19T02:06:58.944Z,81.12
2023-01-19T02:08:31.212Z,80.98
2023-01-19T02:09:55.418Z,81.09
2023-01-19T02:11:17.825Z,81.12
2023-01-19T02:12:38.779Z,81.15
2023-01-19T02:13:43.870Z,81.29
2023-01-19T02:14:45.966Z,81.17
2023-01-19T02:15:54.197Z,81.43
2023-01-19T02:16:56.846Z,81.16
2023-01-19T02:17:59.227Z,81.25
2023-01-19T02:19:01.478Z,81.25
2023-01-19T02:20:03.919Z,81.58
2023-01-19T02:21:10.667Z,81.25
2023-01-19T02:22:20.398Z,81.10
2023-01-19T02:23:44.390Z,81.17
2023-01-19T02:24:46.788Z,80.67
2023-01-19T02:25:49.708Z,80.42
2023-01-19T02:26:52.403Z,80.72
2023-01-19T02:27:55.076Z,80.94
2023-01-19T02:29:21.391Z,80.90
2023-01-19T02:30:24.167Z,80.97
2023-01-19T02:31:28.799Z,81.42
2023-01-19T02:32:31.389Z,81.56
2023-01-19T02:33:33.889Z,81.65
2023-01-19T02:34:36.428Z,81.25
2023-01-19T02:35:40.530Z,81.28
2023-01-19T02:37:06.850Z,80.77
2023-01-19T02:38:11.871Z,81.52
2023-01-19T02:39:15.928Z,81.43
2023-01-19T02:40:21.044Z,81.37
2023-01-19T02:41:28.507Z,81.88
2023-01-19T02:42:45.029Z,81.95
2023-01-19T02:43:49.224Z,81.46
2023-01-19T02:44:54.877Z,81.32
2023-01-19T02:45:57.523Z,81.09
2023-01-19T02:47:03.996Z,81.17
2023-01-19T02:48:07.255Z,80.73
2023-01-19T02:49:10.061Z,80.90
2023-01-19T02:50:43.076Z,81.03
2023-01-19T02:51:45.486Z,80.85
2023-01-19T02:52:48.818Z,80.67
2023-01-19T02:54:13.853Z,81.04
2023-01-19T02:55:28.012Z,81.04
2023-01-19T02:56:30.205Z,80.92
2023-01-19T02:57:57.310Z,80.53
2023-01-19T02:59:14.664Z,80.41
2023-01-19T03:00:41.352Z,79.90
2023-01-19T03:02:02.097Z,80.38
2023-01-19T03:03:30.811Z,80.01
2023-01-19T03:04:51.620Z,79.78
2023-01-19T03:06:13.473Z,79.30
2023-01-19T03:07:30.461Z,79.21
2023-01-19T03:08:55.000Z,79.43
2023-01-19T03:10:15.741Z,79.49
2023-01-19T03:11:18.679Z,79.31
2023-01-19T03:12:26.822Z,79.62
2023-01-19T03:13:41.573Z,79.26
2023-01-19T03:14:48.169Z,79.50
2023-01-19T03:15:56.036Z,78.89
2023-01-19T03:17:01.447Z,79.08
2023-01-19T03:18:08.240Z,79.09
2023-01-19T03:19:20.393Z,79.54
2023-01-19T03:20:25.466Z,79.49
2023-01-19T03:21:32.592Z,79.49
2023-01-19T03:22:35.124Z,79.41
2023-01-19T03:23:42.176Z,78.91
2023-01-19T03:24:47.821Z,78.80
2023-01-19T03:25:53.008Z,78.79
2023-01-19T03:27:04.400Z,79.06
2023-01-19T03:28:06.785Z,79.05
2023-01-19T03:29:11.767Z,78.50
2023-01-19T03:30:23.046Z,78.33
2023-01-19T03:31:29.053Z,78.65
2023-01-19T03:32:36.885Z,78.46
2023-01-19T03:33:45.026Z,78.00
2023-01-19T03:34:50.237Z,78.57
2023-01-19T03:36:03.733Z,78.63
2023-01-19T03:37:10.091Z,78.69
2023-01-19T03:38:17.226Z,78.65
2023-01-19T03:39:23.154Z,78.58
2023-01-19T03:40:32.471Z,78.55
2023-01-19T03:41:37.664Z,78.72
2023-01-19T03:42:41.273Z,78.46
2023-01-19T03:43:45.132Z,78.95
2023-01-19T03:44:50.645Z,78.73
2023-01-19T03:45:55.328Z,78.41
2023-01-19T03:46:59.792Z,78.11
2023-01-19T03:48:02.381Z,78.02
2023-01-19T03:49:05.012Z,78.35
2023-01-19T03:50:14.286Z,78.24
2023-01-19T03:51:17.977Z,77.92
2023-01-19T03:52:32.548Z,78.21
2023-01-19T03:53:35.303Z,78.15
2023-01-19T03:54:37.712Z,78.31
2023-01-19T03:55:42.685Z,77.88
2023-01-19T03:56:44.975Z,77.98
2023-01-19T03:57:47.156Z,77.82
2023-01-19T03:58:50.009Z,78.12
2023-01-19T03:59:53.400Z,78.39
2023-01-19T04:00:55.885Z,77.97
2023-01-19T04:01:58.167Z,78.03
2023-01-19T04:03:00.946Z,77.72
2023-01-19T04:04:03.424Z,78.14
2023-01-19T04:05:06.000Z,77.92
2023-01-19T04:06:09.989Z,77.83
2023-01-19T04:07:12.231Z,77.30
2023-01-19T04:08:14.598Z,77.39
2023-01-19T04:09:18.593Z,77.41
2023-01-19T04:10:22.391Z,77.01
2023-01-19T04:11:24.860Z,77.44
2023-01-19T04:12:27.266Z,77.10
2023-01-19T04:13:30.489Z,77.04
2023-01-19T04:14:33.039Z,77.50
2023-01-19T04:15:35.227Z,77.17
2023-01-19T04:16:37.654Z,77.25
2023-01-19T04:17:40.067Z,77.25
2023-01-19T04:18:42.445Z,77.64
2023-01-19T04:19:45.247Z,77.66
2023-01-19T04:20:47.426Z,77.49
2023-01-19T04:21:50.917Z,77.17
2023-01-19T04:22:53.094Z,77.16
2023-01-19T04:23:55.263Z,77.10
2023-01-19T04:24:57.600Z,76.96
2023-01-19T04:26:05.180Z,77.04
2023-01-19T04:27:07.565Z,77.18
2023-01-19T04:28:09.767Z,77.34
2023-01-19T04:29:14.049Z,77.57
2023-01-19T04:30:17.007Z,77.15
2023-01-19T04:31:19.539Z,77.42
2023-01-19T04:32:21.934Z,77.12
2023-01-19T04:33:24.602Z,77.66
2023-01-19T04:34:26.756Z,77.36
2023-01-19T04:35:29.339Z,77.61
2023-01-19T04:36:31.685Z,77.59
2023-01-19T04:37:33.936Z,77.95
2023-01-19T04:38:36.299Z,77.85
2023-01-19T04:39:38.464Z,78.11
2023-01-19T04:40:40.889Z,78.14
2023-01-19T04:41:43.630Z,77.68
2023-01-19T04:42:46.471Z,77.64
2023-01-19T04:43:49.263Z,77.42
2023-01-19T04:44:52.563Z,77.46
2023-01-19T04:45:54.935Z,77.92
2023-01-19T04:46:57.189Z,77.76
2023-01-19T04:47:59.603Z,77.33
2023-01-19T04:49:02.031Z,77.61
2023-01-19T04:50:05.887Z,77.03
2023-01-19T04:51:08.820Z,76.83
2023-01-19T04:52:11.322Z,76.94
2023-01-19T04:53:14.540Z,77.22
2023-01-19T04:54:16.742Z,76.97
2023-01-19T04:55:19.795Z,77.10
2023-01-19T04:56:21.987Z,77.36
2023-01-19T04:57:24.416Z,77.05
2023-01-19T04:58:26.685Z,77.53
2023-01-19T04:59:28.978Z,77.44
2023-01-19T05:00:31.588Z,77.41
2023-01-19T05:01:33.886Z,77.56
2023-01-19T05:02:36.602Z,77.12
2023-01-19T05:03:40.225Z,77.26
2023-01-19T05:04:42.437Z,77.05
2023-01-19T05:05:44.827Z,77.39
2023-01-19T05:06:46.965Z,77.80
2023-01-19T05:07:49.535Z,77.84
2023-01-19T05:08:51.711Z,77.53
2023-01-19T05:09:53.984Z,77.31
2023-01-19T05:10:57.607Z,77.19
2023-01-19T05:11:59.760Z,77.12
2023-01-19T05:13:02.853Z,76.86
2023-01-19T05:14:05.293Z,77.21
2023-01-19T05:15:09.558Z,77.06
2023-01-19T05:16:14.006Z,76.73
2023-01-19T05:17:16.411Z,76.44
2023-01-19T05:18:18.871Z,76.45
2023-01-19T05:19:21.224Z,76.71
2023-01-19T05:20:23.933Z,76.34
2023-01-19T05:21:26.622Z,76.67
2023-01-19T05:22:28.804Z,76.69
2023-01-19T05:23:32.606Z,76.71
2023-01-19T05:24:35.451Z,75.93
2023-01-19T05:25:38.720Z,76.53
2023-01-19T05:26:41.632Z,76.25
2023-01-19T05:27:44.732Z,76.36
2023-01-19T05:28:46.962Z,76.58
2023-01-19T05:29:49.396Z,76.76
2023-01-19T05:30:51.883Z,76.34
2023-01-19T05:31:54.266Z,76.55
2023-01-19T05:32:56.527Z,76.35
2023-01-19T05:33:58.673Z,76.63
2023-01-19T05:35:01.100Z,76.66
2023-01-19T05:36:04.365Z,76.16
2023-01-19T05:37:06.778Z,76.09
2023-01-19T05:38:09.409Z,76.68
2023-01-19T05:39:11.647Z,76.36
2023-01-19T05:40:14.051Z,76.36
2023-01-19T05:41:17.654Z,76.43
2023-01-19T05:42:19.901Z,76.69
2023-01-19T05:43:22.270Z,76.18
2023-01-19T05:44:24.439Z,75.82
2023-01-19T05:45:28.344Z,76.11
2023-01-19T05:46:33.609Z,76.17
2023-01-19T05:47:35.903Z,76.38
2023-01-19T05:48:38.642Z,76.09
2023-01-19T05:49:40.860Z,75.96
2023-01-19T05:50:43.325Z,76.01
2023-01-19T05:51:45.730Z,75.78
2023-01-19T05:52:47.984Z,75.92
2023-01-19T05:53:50.527Z,75.81
2023-01-19T05:54:54.599Z,75.63
2023-01-19T05:56:05.755Z,75.42
2023-01-19T05:57:09.260Z,75.45
2023-01-19T05:58:11.616Z,75.46
2023-01-19T05:59:15.269Z,75.89
2023-01-19T06:00:17.747Z,75.75
2023-01-19T06:01:19.926Z,75.21
2023-01-19T06:02:28.506Z,75.35
2023-01-19T06:03:31.802Z,74.84
2023-01-19T06:04:34.163Z,74.81
2023-01-19T06:05:38.425Z,75.19
2023-01-19T06:06:41.030Z,75.15
2023-01-19T06:07:43.254Z,75.01
2023-01-19T06:08:45.901Z,75.40
2023-01-19T06:09:48.092Z,75.20
2023-01-19T06:10:50.488Z,74.94
2023-01-19T06:11:54.194Z,75.09
2023-01-19T06:12:56.541Z,74.89
2023-01-19T06:13:58.829Z,74.64
2023-01-19T06:15:01.031Z,74.84
2023-01-19T06:16:03.646Z,74.83
2023-01-19T06:17:06.703Z,74.19
2023-01-19T06:18:09.498Z,74.52
2023-01-19T06:19:11.833Z,74.49
2023-01-19T06:20:14.196Z,74.79
2023-01-19T06:21:16.611Z,74.35
2023-01-19T06:22:18.743Z,74.35
2023-01-19T06:23:21.030Z,74.13
2023-01-19T06:24:24.300Z,74.30
2023-01-19T06:25:26.492Z,74.56
2023-01-19T06:26:29.141Z,74.53
2023-01-19T06:27:31.427Z,74.47
2023-01-19T06:28:33.610Z,74.39
2023-01-19T06:29:36.196Z,74.39
2023-01-19T06:30:38.477Z,73.76
2023-01-19T06:31:41.778Z,73.98
2023-01-19T06:32:44.266Z,76.85
2023-01-19T06:33:46.707Z,76.54
2023-01-19T06:34:49.262Z,77.34
2023-01-19T06:35:52.473Z,78.26
2023-01-19T06:36:58.290Z,78.23
2023-01-19T06:38:00.444Z,77.69
2023-01-19T06:39:06.021Z,75.70
2023-01-19T06:40:08.888Z,74.38
2023-01-19T06:41:11.060Z,73.67
2023-01-19T06:42:13.281Z,73.71
2023-01-19T06:43:15.500Z,73.29
2023-01-19T06:44:17.901Z,73.27
2023-01-19T06:45:20.120Z,73.22
2023-01-19T06:46:22.308Z,73.42
2023-01-19T06:47:24.533Z,73.14
2023-01-19T06:48:27.247Z,73.15
2023-01-19T06:49:29.607Z,73.71
2023-01-19T06:50:32.011Z,73.91
2023-01-19T06:51:34.438Z,74.09
2023-01-19T06:52:42.212Z,73.78
2023-01-19T06:53:44.730Z,73.71
2023-01-19T06:54:47.184Z,73.85
2023-01-19T06:55:49.373Z,74.00
2023-01-19T06:56:52.648Z,73.62
2023-01-19T06:58:01.323Z,73.77
2023-01-19T06:59:03.592Z,73.90
2023-01-19T07:00:08.419Z,73.65
2023-01-19T07:01:10.840Z,74.07
2023-01-19T07:02:26.571Z,74.29
2023-01-19T07:03:30.554Z,73.90
2023-01-19T07:04:34.114Z,73.79
2023-01-19T07:05:36.495Z,73.50
2023-01-19T07:06:38.687Z,73.92
2023-01-19T07:07:42.507Z,74.62
2023-01-19T07:08:44.754Z,74.17
2023-01-19T07:09:47.319Z,74.33
2023-01-19T07:11:26.140Z,73.72
2023-01-19T07:12:12.656Z,73.63
2023-01-19T07:13:15.835Z,73.97
2023-01-19T07:14:17.976Z,74.04
2023-01-19T07:15:21.739Z,74.58
2023-01-19T07:16:24.057Z,74.04
2023-01-19T07:17:26.482Z,74.50
2023-01-19T07:18:28.871Z,74.03
2023-01-19T07:19:31.224Z,74.43
2023-01-19T07:20:37.614Z,73.90
2023-01-19T07:21:39.961Z,73.64
2023-01-19T07:22:46.626Z,73.82
2023-01-19T07:23:50.165Z,73.86
2023-01-19T07:24:52.327Z,74.02
2023-01-19T07:25:54.661Z,74.38
2023-01-19T07:26:56.967Z,74.38
2023-01-19T07:28:00.104Z,74.61
2023-01-19T07:29:02.560Z,74.86
2023-01-19T07:30:11.480Z,74.75
2023-01-19T07:31:14.550Z,74.56
2023-01-19T07:32:16.834Z,74.72
2023-01-19T07:33:18.994Z,74.66
2023-01-19T07:34:21.494Z,75.39
2023-01-19T07:35:27.035Z,75.56
2023-01-19T07:36:29.423Z,75.06
2023-01-19T07:37:31.646Z,74.30
2023-01-19T07:38:33.857Z,74.50
2023-01-19T07:39:36.707Z,74.71
2023-01-19T07:40:39.148Z,75.01
2023-01-19T07:41:41.344Z,74.32
2023-01-19T07:42:51.011Z,74.26
2023-01-19T07:43:53.243Z,74.25
2023-01-19T07:44:55.424Z,74.39
2023-01-19T07:45:59.424Z,74.28
2023-01-19T07:47:01.597Z,74.40
2023-01-19T07:48:03.899Z,74.31
2023-01-19T07:49:06.268Z,73.95
2023-01-19T07:50:09.198Z,74.54
2023-01-19T07:51:19.029Z,74.18
2023-01-19T07:52:22.924Z,74.27
2023-01-19T07:53:25.092Z,74.13
2023-01-19T07:54:27.507Z,74.53
2023-01-19T07:55:29.818Z,74.10
2023-01-19T07:56:33.893Z,74.22
2023-01-19T07:57:36.625Z,74.18
2023-01-19T07:58:39.271Z,74.24
2023-01-19T07:59:41.628Z,74.23
2023-01-19T08:00:43.843Z,73.98
2023-01-19T08:01:46.505Z,73.54
2023-01-19T08:02:51.847Z,73.14
2023-01-19T08:03:54.075Z,72.81
2023-01-19T08:04:56.625Z,72.57
2023-01-19T08:05:59.900Z,72.80
2023-01-19T08:07:02.492Z,73.03
2023-01-19T08:08:05.573Z,72.64
2023-01-19T08:09:08.474Z,73.11
2023-01-19T08:10:15.636Z,72.53
2023-01-19T08:11:17.826Z,73.01
2023-01-19T08:12:20.075Z,72.33
2023-01-19T08:13:22.476Z,71.86
2023-01-19T08:14:24.692Z,72.42
2023-01-19T08:15:27.225Z,72.17
2023-01-19T08:16:29.476Z,71.89
2023-01-19T08:17:31.848Z,71.55
2023-01-19T08:18:34.102Z,71.83
2023-01-19T08:19:36.262Z,71.40
2023-01-19T08:20:38.536Z,71.34
2023-01-19T08:21:41.131Z,70.68
2023-01-19T08:22:43.534Z,70.17
2023-01-19T08:23:52.793Z,70.81
2023-01-19T08:24:55.031Z,69.24
2023-01-19T08:25:57.248Z,68.84
2023-01-19T08:27:01.188Z,68.19
2023-01-19T08:28:05.441Z,67.94
2023-01-19T08:29:07.620Z,68.04
2023-01-19T08:30:10.595Z,67.74
2023-01-19T08:31:20.356Z,67.26
2023-01-19T08:32:25.119Z,67.01
2023-01-19T08:33:27.322Z,66.59
2023-01-19T08:34:32.427Z,66.50
2023-01-19T08:35:37.479Z,66.65
2023-01-19T08:36:39.617Z,66.42
2023-01-19T08:37:41.812Z,67.34
2023-01-19T08:38:47.673Z,66.45
2023-01-19T08:39:50.080Z,66.98
2023-01-19T08:40:52.236Z,66.78
2023-01-19T08:41:54.538Z,66.55
2023-01-19T08:43:03.619Z,67.18
2023-01-19T08:44:06.011Z,66.48
2023-01-19T08:45:09.330Z,66.63
2023-01-19T08:46:12.052Z,65.74
2023-01-19T08:47:14.335Z,65.46
2023-01-19T08:48:19.320Z,65.22
2023-01-19T08:49:21.494Z,64.77
2023-01-19T08:50:23.695Z,65.62
2023-01-19T08:51:26.096Z,64.59
2023-01-19T08:52:29.352Z,64.67
2023-01-19T08:53:31.804Z,63.99
2023-01-19T08:54:33.973Z,63.92
2023-01-19T08:55:36.531Z,63.18
2023-01-19T08:56:38.856Z,63.23
2023-01-19T08:57:41.040Z,63.18
2023-01-19T08:58:45.710Z,62.86
2023-01-19T08:59:47.995Z,62.65
2023-01-19T09:00:52.526Z,62.79
2023-01-19T09:01:55.118Z,62.11
2023-01-19T09:02:57.885Z,61.83
2023-01-19T09:04:00.228Z,61.61
2023-01-19T09:05:02.463Z,61.99
2023-01-19T09:06:08.554Z,61.86
2023-01-19T09:07:11.169Z,62.15
2023-01-19T09:08:14.660Z,61.24
2023-01-19T09:09:16.808Z,61.65
2023-01-19T09:10:19.215Z,62.23
2023-01-19T09:11:21.401Z,61.98
2023-01-19T09:12:23.607Z,61.77
2023-01-19T09:13:26.377Z,61.84
2023-01-19T09:14:28.542Z,61.72
2023-01-19T09:15:33.895Z,61.13
2023-01-19T09:16:36.129Z,61.56
2023-01-19T09:17:38.299Z,61.92
2023-01-19T09:18:40.934Z,61.71
2023-01-19T09:19:43.097Z,61.91
2023-01-19T09:20:47.443Z,61.52
2023-01-19T09:21:49.652Z,61.73
2023-01-19T09:22:51.963Z,61.98
2023-01-19T09:23:55.199Z,61.10
2023-01-19T09:24:57.347Z,61.27
2023-01-19T09:26:02.037Z,61.88
2023-01-19T09:27:04.592Z,61.93
2023-01-19T09:28:09.218Z,62.04
2023-01-19T09:29:11.744Z,62.28
2023-01-19T09:30:14.093Z,62.12
2023-01-19T09:31:16.346Z,62.26
2023-01-19T09:32:20.564Z,62.10
2023-01-19T09:33:23.367Z,62.91
2023-01-19T09:34:26.176Z,62.72
2023-01-19T09:35:28.344Z,62.83
2023-01-19T09:36:30.966Z,62.37
2023-01-19T09:37:33.135Z,62.63
2023-01-19T09:38:35.320Z,62.52
2023-01-19T09:39:37.945Z,62.79
2023-01-19T09:40:55.143Z,63.03
2023-01-19T09:42:14.613Z,63.07
2023-01-19T09:43:35.320Z,62.89
2023-01-19T09:44:39.511Z,63.44
2023-01-19T09:45:50.401Z,62.87
2023-01-19T09:46:52.634Z,62.87
2023-01-19T09:47:57.170Z,62.50
2023-01-19T09:49:05.308Z,62.83
2023-01-19T09:50:20.893Z,62.17
2023-01-19T09:51:28.434Z,62.93
2023-01-19T09:52:35.951Z,63.49
2023-01-19T09:53:50.521Z,62.25
2023-01-19T09:54:58.251Z,62.01
2023-01-19T09:56:00.469Z,62.65
2023-01-19T09:57:02.963Z,62.11
2023-01-19T09:58:12.326Z,62.79
2023-01-19T09:59:36.804Z,62.56
2023-01-19T10:00:39.786Z,62.44
2023-01-19T10:02:07.115Z,62.51
2023-01-19T10:03:17.075Z,62.49
2023-01-19T10:04:30.179Z,63.07
2023-01-19T10:05:41.814Z,62.34
2023-01-19T10:06:44.401Z,62.79
2023-01-19T10:07:55.898Z,62.75
2023-01-19T10:09:19.184Z,62.38
2023-01-19T10:10:28.668Z,62.30
2023-01-19T10:11:51.288Z,62.63
2023-01-19T10:13:15.230Z,63.24
2023-01-19T10:14:28.121Z,62.82
2023-01-19T10:15:38.172Z,63.03
2023-01-19T10:16:53.144Z,63.25
2023-01-19T10:18:34.967Z,63.46
2023-01-19T10:19:46.448Z,63.92
2023-01-19T10:20:56.536Z,63.41
2023-01-19T10:22:04.208Z,63.63
2023-01-19T10:23:21.952Z,64.13
2023-01-19T10:24:29.097Z,63.26
2023-01-19T10:25:32.045Z,63.07
2023-01-19T10:26:38.932Z,63.31
2023-01-19T10:27:42.972Z,62.96
2023-01-19T10:28:48.215Z,62.96
2023-01-19T10:29:50.774Z,63.47
2023-01-19T10:30:55.048Z,63.93
2023-01-19T10:32:21.187Z,62.69
2023-01-19T10:33:23.660Z,63.23
2023-01-19T10:34:25.849Z,63.68
2023-01-19T10:35:29.915Z,63.85
2023-01-19T10:36:38.186Z,63.91
2023-01-19T10:37:44.932Z,64.04
2023-01-19T10:38:48.027Z,63.23
2023-01-19T10:39:56.171Z,63.53
2023-01-19T10:41:05.301Z,63.43
2023-01-19T10:42:12.955Z,63.64
2023-01-19T10:43:36.074Z,63.70
2023-01-19T10:44:38.563Z,64.19
2023-01-19T10:45:40.795Z,64.84
2023-01-19T10:46:47.222Z,64.42
2023-01-19T10:47:50.385Z,64.50
2023-01-19T10:48:54.162Z,64.62
2023-01-19T10:49:56.545Z,63.94
2023-01-19T10:51:06.240Z,64.16
2023-01-19T10:52:31.821Z,65.03
2023-01-19T10:53:34.069Z,64.48
2023-01-19T10:54:37.588Z,64.96
2023-01-19T10:55:40.305Z,64.81
2023-01-19T10:56:43.450Z,64.56
2023-01-19T10:57:49.498Z,65.35
2023-01-19T10:58:51.702Z,65.04
2023-01-19T10:59:53.916Z,65.05
2023-01-19T11:01:14.119Z,65.58
2023-01-19T11:02:26.730Z,65.80
2023-01-19T11:03:31.416Z,65.85
2023-01-19T11:04:33.606Z,65.96
2023-01-19T11:05:35.980Z,66.13
2023-01-19T11:06:38.105Z,65.67
2023-01-19T11:07:40.275Z,65.97
2023-01-19T11:08:44.184Z,66.52
2023-01-19T11:09:48.042Z,66.59
2023-01-19T11:10:58.230Z,66.28
2023-01-19T11:12:00.587Z,66.58
2023-01-19T11:13:12.948Z,66.09
2023-01-19T11:14:22.088Z,66.21
2023-01-19T11:15:27.512Z,66.08
2023-01-19T11:16:32.268Z,67.30
2023-01-19T11:17:34.631Z,67.43
2023-01-19T11:18:39.292Z,67.63
2023-01-19T11:19:41.603Z,67.94
2023-01-19T11:20:53.368Z,66.96
2023-01-19T11:22:11.364Z,67.35
2023-01-19T11:23:24.678Z,66.39
2023-01-19T11:24:26.989Z,66.54
2023-01-19T11:25:32.763Z,67.45
2023-01-19T11:26:41.188Z,67.06
2023-01-19T11:27:51.626Z,67.25
2023-01-19T11:28:56.703Z,67.28
2023-01-19T11:30:10.383Z,67.06
2023-01-19T11:31:15.387Z,67.20
2023-01-19T11:32:22.806Z,66.67
2023-01-19T11:33:37.595Z,65.93
2023-01-19T11:34:39.876Z,66.20
2023-01-19T11:35:42.057Z,66.80
2023-01-19T11:36:59.485Z,67.31
2023-01-19T11:38:16.816Z,67.01
2023-01-19T11:39:28.326Z,66.54
2023-01-19T11:40:31.388Z,66.65
2023-01-19T11:41:37.363Z,66.55
2023-01-19T11:42:39.581Z,66.89
2023-01-19T11:43:48.964Z,67.42
2023-01-19T11:44:57.897Z,66.20
2023-01-19T11:46:00.333Z,66.43
2023-01-19T11:47:10.372Z,66.32
2023-01-19T11:48:23.812Z,65.95
2023-01-19T11:49:32.000Z,66.43
2023-01-19T11:50:42.632Z,65.96
2023-01-19T11:51:56.446Z,66.56
2023-01-19T11:53:11.375Z,66.21
2023-01-19T11:54:29.786Z,66.97
2023-01-19T11:55:49.766Z,67.46
2023-01-19T11:56:53.918Z,67.13
2023-01-19T11:57:56.271Z,66.87
2023-01-19T11:58:58.876Z,66.37
2023-01-19T12:00:05.358Z,66.90
2023-01-19T12:01:27.884Z,67.02
2023-01-19T12:02:46.897Z,66.21
2023-01-19T12:03:54.882Z,66.53
2023-01-19T12:05:05.505Z,66.00
2023-01-19T12:06:12.236Z,65.81
2023-01-19T12:07:30.160Z,66.36
2023-01-19T12:08:39.399Z,65.88
2023-01-19T12:09:53.959Z,65.83
2023-01-19T12:10:58.713Z,65.78
2023-01-19T12:12:08.027Z,65.67
2023-01-19T12:13:23.194Z,65.69
2023-01-19T12:14:40.171Z,65.63
2023-01-19T12:15:44.554Z,66.12
2023-01-19T12:16:47.079Z,65.93
2023-01-19T12:17:51.388Z,65.78
2023-01-19T12:18:59.378Z,66.74
2023-01-19T12:20:31.426Z,65.99
2023-01-19T12:21:33.609Z,65.95
2023-01-19T12:22:49.363Z,66.56
2023-01-19T12:24:12.502Z,66.14
2023-01-19T12:25:24.764Z,66.87
2023-01-19T12:26:35.823Z,66.38
2023-01-19T12:27:40.444Z,66.39
2023-01-19T12:28:46.594Z,66.05
2023-01-19T12:29:49.053Z,66.22
2023-01-19T12:30:52.207Z,66.05
2023-01-19T12:32:13.210Z,65.99
2023-01-19T12:33:30.100Z,66.65
2023-01-19T12:34:41.261Z,66.77
2023-01-19T12:36:04.434Z,65.94
2023-01-19T12:37:30.971Z,66.19
2023-01-19T12:39:03.977Z,67.05
2023-01-19T12:40:27.878Z,67.18
2023-01-19T12:41:36.953Z,66.86
2023-01-19T12:42:46.751Z,67.24
2023-01-19T12:44:12.200Z,66.73
2023-01-19T12:45:23.229Z,66.64
2023-01-19T12:46:30.996Z,67.00
2023-01-19T12:47:33.851Z,68.00
2023-01-19T12:48:36.365Z,67.85
2023-01-19T12:49:38.473Z,67.87
2023-01-19T12:50:46.499Z,68.04
2023-01-19T12:51:50.905Z,67.53
2023-01-19T12:52:59.349Z,67.83
2023-01-19T12:54:05.630Z,68.18
2023-01-19T12:55:14.678Z,68.28
2023-01-19T12:56:17.794Z,68.49
2023-01-19T12:57:29.032Z,68.69
2023-01-19T12:58:31.927Z,68.88
2023-01-19T12:59:37.498Z,68.90
2023-01-19T13:00:42.993Z,68.88
2023-01-19T13:02:20.310Z,69.09
2023-01-19T13:03:44.723Z,68.54
2023-01-19T13:05:07.040Z,68.94
2023-01-19T13:06:09.453Z,68.82
2023-01-19T13:07:13.669Z,69.09
2023-01-19T13:08:18.338Z,69.56
2023-01-19T13:09:30.848Z,68.87
2023-01-19T13:11:09.804Z,69.13
2023-01-19T13:12:14.755Z,69.07
2023-01-19T13:13:21.176Z,68.79
2023-01-19T13:14:37.875Z,69.27
2023-01-19T13:15:40.130Z,68.79
2023-01-19T13:16:47.905Z,69.34
2023-01-19T13:17:52.795Z,69.43
2023-01-19T13:18:56.774Z,69.02
2023-01-19T13:20:24.603Z,68.72
2023-01-19T13:21:29.878Z,68.89
2023-01-19T13:22:49.786Z,69.87
2023-01-19T13:23:56.281Z,69.36
2023-01-19T13:25:26.717Z,70.02
2023-01-19T13:26:42.299Z,69.78
2023-01-19T13:27:44.731Z,69.94
2023-01-19T13:28:52.040Z,69.16
2023-01-19T13:29:54.233Z,69.69
2023-01-19T13:31:00.346Z,69.66
2023-01-19T13:32:12.713Z,69.45
2023-01-19T13:33:22.605Z,69.40
2023-01-19T13:34:27.802Z,69.67
2023-01-19T13:35:30.036Z,69.78
2023-01-19T13:36:36.317Z,69.40
2023-01-19T13:37:44.691Z,69.01
2023-01-19T13:38:49.724Z,69.26
2023-01-19T13:39:54.822Z,69.58
2023-01-19T13:41:01.640Z,69.64
2023-01-19T13:42:09.235Z,69.75
2023-01-19T13:43:34.712Z,69.93
2023-01-19T13:44:51.476Z,70.26
2023-01-19T13:45:54.221Z,69.79
2023-01-19T13:46:59.677Z,69.63
2023-01-19T13:48:06.566Z,69.70
2023-01-19T13:49:35.444Z,68.96
2023-01-19T13:50:40.700Z,69.44
2023-01-19T13:51:42.870Z,69.72
2023-01-19T13:52:45.845Z,69.32
2023-01-19T13:53:55.970Z,69.56
2023-01-19T13:55:03.073Z,69.75
2023-01-19T13:56:10.013Z,69.89
2023-01-19T13:57:42.703Z,70.65
2023-01-19T13:59:01.192Z,69.42
2023-01-19T14:00:07.202Z,69.27
2023-01-19T14:01:23.408Z,69.15
2023-01-19T14:02:26.224Z,69.33
2023-01-19T14:03:28.629Z,70.20
2023-01-19T14:04:33.754Z,70.01
2023-01-19T14:05:38.635Z,69.81
2023-01-19T14:06:46.269Z,70.32
2023-01-19T14:07:59.074Z,70.86
2023-01-19T14:09:18.564Z,71.00
2023-01-19T14:10:20.941Z,71.50
2023-01-19T14:11:23.094Z,71.67
2023-01-19T14:12:25.744Z,71.34